Time;durP1;ratioP1;P1;durP2;ratioP2;P2;SDS_P1;SDS_P2;PMS_P1;PMS_P2;Temp;Humidity;BMP_temperature;BMP_pressure;BME280_temperature;BME280_humidity;BME280_pressure;Samples;Min_cycle;Max_cycle;Signal;HPM_P1;HPM_P2
2021/09/08 00:00:33;;;;;;;11.43;5.97;;;;;;;;;;5095780;28;20460;-73
2021/09/08 00:03:00;;;;;;;9.50;5.90;;;;;;;;;;5094227;28;20024;-73
2021/09/08 00:05:25;;;;;;;8.93;6.00;;;;;;;;;;5078448;28;20024;-72
2021/09/08 00:07:51;;;;;;;7.65;5.60;;;;;;;;;;5074996;28;20040;-72
2021/09/08 00:10:17;;;;;;;10.07;6.07;;;;;;;;;;5085563;28;20032;-72
2021/09/08 00:12:42;;;;;;;9.85;5.82;;;;;;;;;;5096035;28;20502;-72
2021/09/08 00:15:10;;;;;;;6.78;5.15;;;;;;;;;;5090543;28;20063;-72
2021/09/08 00:17:36;;;;;;;11.18;5.78;;;;;;;;;;5090024;28;20152;-72
2021/09/08 00:20:04;;;;;;;10.32;5.43;;;;;;;;;;5095047;28;20480;-72
2021/09/08 00:22:31;;;;;;;11.07;6.65;;;;;;;;;;5095560;28;20024;-72
2021/09/08 00:24:57;;;;;;;12.82;6.32;;;;;;;;;;5093541;28;20118;-72
2021/09/08 00:27:23;;;;;;;12.52;6.22;;;;;;;;;;5063764;28;20554;-72
2021/09/08 00:29:48;;;;;;;8.68;5.88;;;;;;;;;;5062862;28;20020;-72
2021/09/08 00:32:14;;;;;;;10.18;6.20;;;;;;;;;;5075261;28;20029;-72
2021/09/08 00:34:39;;;;;;;11.63;6.85;;;;;;;;;;5074403;28;20020;-72
2021/09/08 00:37:04;;;;;;;8.52;6.13;;;;;;;;;;5081367;28;20040;-73
2021/09/08 00:39:31;;;;;;;10.40;7.45;;;;;;;;;;5074736;28;20419;-73
2021/09/08 00:41:57;;;;;;;11.40;6.50;;;;;;;;;;5089752;28;20053;-72
2021/09/08 00:44:25;;;;;;;10.65;6.70;;;;;;;;;;5076893;28;20024;-73
2021/09/08 00:46:51;;;;;;;8.68;5.95;;;;;;;;;;5077190;28;20032;-72
2021/09/08 00:49:16;;;;;;;9.32;6.07;;;;;;;;;;5074588;28;20024;-72
2021/09/08 00:51:44;;;;;;;11.02;6.47;;;;;;;;;;5075081;28;20016;-73
2021/09/08 00:54:12;;;;;;;9.63;5.88;;;;;;;;;;5093906;28;20035;-73
2021/09/08 00:56:40;;;;;;;10.48;6.20;;;;;;;;;;5086254;28;20024;-73
2021/09/08 00:59:07;;;;;;;11.90;6.00;;;;;;;;;;5074140;28;20047;-73
2021/09/08 01:01:32;;;;;;;10.40;6.03;;;;;;;;;;5075752;28;20093;-72
2021/09/08 01:03:58;;;;;;;12.23;6.88;;;;;;;;;;5074636;28;20052;-73
2021/09/08 01:06:23;;;;;;;9.68;6.15;;;;;;;;;;5084348;28;20064;-73
2021/09/08 01:08:50;;;;;;;9.30;6.28;;;;;;;;;;5089090;28;20024;-72
2021/09/08 01:11:15;;;;;;;9.95;6.07;;;;;;;;;;5074000;28;20028;-73
2021/09/08 01:13:40;;;;;;;8.90;6.10;;;;;;;;;;5074569;28;20054;-72
2021/09/08 01:16:06;;;;;;;8.95;6.03;;;;;;;;;;5091644;28;20035;-72
2021/09/08 01:18:33;;;;;;;10.45;6.18;;;;;;;;;;5094050;28;20422;-72
2021/09/08 01:20:59;;;;;;;10.00;6.03;;;;;;;;;;5095049;28;20402;-72
2021/09/08 01:23:25;;;;;;;8.88;5.80;;;;;;;;;;5080660;28;20035;-72
2021/09/08 01:25:51;;;;;;;9.45;6.13;;;;;;;;;;5091682;28;20422;-72
2021/09/08 01:28:18;;;;;;;9.52;6.15;;;;;;;;;;5085363;28;20028;-73
2021/09/08 01:30:44;;;;;;;9.23;6.07;;;;;;;;;;5073033;28;20101;-73
2021/09/08 01:33:11;;;;;;;7.95;5.55;;;;;;;;;;5073684;28;20112;-72
2021/09/08 01:35:37;;;;;;;9.48;6.05;;;;;;;;;;5079182;28;20063;-72
2021/09/08 01:38:03;;;;;;;11.02;5.60;;;;;;;;;;5093141;28;20051;-72
2021/09/08 01:40:29;;;;;;;10.77;6.15;;;;;;;;;;5075236;28;20048;-72
2021/09/08 01:42:55;;;;;;;10.35;6.53;;;;;;;;;;5090929;28;20438;-72
2021/09/08 01:45:20;;;;;;;10.35;5.93;;;;;;;;;;5093331;28;20414;-72
2021/09/08 01:47:46;;;;;;;11.15;6.70;;;;;;;;;;5093765;28;20475;-72
2021/09/08 01:50:12;;;;;;;10.85;5.95;;;;;;;;;;5093830;28;20031;-72
2021/09/08 01:52:38;;;;;;;10.60;7.35;;;;;;;;;;5080051;28;20384;-72
2021/09/08 01:55:07;;;;;;;7.90;6.03;;;;;;;;;;5074812;28;20102;-72
2021/09/08 01:57:34;;;;;;;10.27;6.68;;;;;;;;;;5073901;28;20473;-72
2021/09/08 01:59:59;;;;;;;10.65;6.82;;;;;;;;;;5073671;28;20456;-72
2021/09/08 02:02:25;;;;;;;10.35;6.63;;;;;;;;;;5073389;28;20143;-72
2021/09/08 02:04:50;;;;;;;9.32;6.28;;;;;;;;;;5073439;28;20066;-72
2021/09/08 02:07:16;;;;;;;11.85;6.13;;;;;;;;;;5073811;28;20464;-73
2021/09/08 02:09:41;;;;;;;12.18;6.78;;;;;;;;;;5087632;28;20020;-72
2021/09/08 02:12:07;;;;;;;9.10;6.80;;;;;;;;;;5073459;28;20688;-72
2021/09/08 02:14:38;;;;;;;13.10;6.57;;;;;;;;;;5072773;28;20024;-72
2021/09/08 02:17:04;;;;;;;8.88;5.88;;;;;;;;;;5079190;28;20440;-72
2021/09/08 02:19:29;;;;;;;12.63;6.72;;;;;;;;;;5081483;28;20059;-72
2021/09/08 02:21:55;;;;;;;10.65;6.47;;;;;;;;;;5078011;28;20107;-72
2021/09/08 02:24:22;;;;;;;10.52;5.85;;;;;;;;;;5073714;28;20329;-72
2021/09/08 02:26:48;;;;;;;12.15;6.43;;;;;;;;;;5073512;28;20064;-73
2021/09/08 02:29:14;;;;;;;10.27;6.53;;;;;;;;;;5079112;28;20044;-72
2021/09/08 02:31:40;;;;;;;12.57;6.40;;;;;;;;;;5073418;28;20443;-72
2021/09/08 02:34:05;;;;;;;11.98;6.82;;;;;;;;;;5072025;28;20095;-73
2021/09/08 02:36:31;;;;;;;12.18;7.03;;;;;;;;;;5063578;28;20055;-73
2021/09/08 02:38:56;;;;;;;10.77;6.95;;;;;;;;;;5092582;28;20028;-73
2021/09/08 02:41:23;;;;;;;14.25;7.07;;;;;;;;;;5092072;28;20062;-72
2021/09/08 02:43:50;;;;;;;9.88;6.93;;;;;;;;;;5088090;28;20076;-72
2021/09/08 02:46:17;;;;;;;11.25;7.07;;;;;;;;;;5091855;28;20020;-72
2021/09/08 02:48:42;;;;;;;10.35;6.32;;;;;;;;;;5092450;28;20023;-72
2021/09/08 02:51:08;;;;;;;13.57;7.65;;;;;;;;;;5075311;28;20032;-73
2021/09/08 02:53:34;;;;;;;12.05;6.85;;;;;;;;;;5072679;28;20032;-73
2021/09/08 02:56:01;;;;;;;12.10;7.15;;;;;;;;;;5083341;28;20081;-72
2021/09/08 02:58:27;;;;;;;14.20;7.25;;;;;;;;;;5092219;28;20492;-72
2021/09/08 03:00:55;;;;;;;12.27;6.80;;;;;;;;;;5086716;28;20125;-73
2021/09/08 03:03:20;;;;;;;14.10;7.68;;;;;;;;;;5072023;28;20028;-72
2021/09/08 03:05:52;;;;;;;13.35;7.57;;;;;;;;;;5072506;28;20047;-72
2021/09/08 03:08:17;;;;;;;11.60;6.85;;;;;;;;;;5089046;28;20030;-72
2021/09/08 03:10:44;;;;;;;12.68;7.25;;;;;;;;;;5078860;28;20099;-72
2021/09/08 03:13:12;;;;;;;12.80;6.90;;;;;;;;;;5078172;28;20031;-72
2021/09/08 03:15:38;;;;;;;14.00;7.20;;;;;;;;;;5072087;28;20067;-72
2021/09/08 03:18:06;;;;;;;13.95;7.47;;;;;;;;;;5073575;28;20020;-72
2021/09/08 03:20:31;;;;;;;12.57;7.43;;;;;;;;;;5071910;28;20025;-72
2021/09/08 03:22:57;;;;;;;14.57;7.63;;;;;;;;;;5083658;28;20050;-72
2021/09/08 03:25:22;;;;;;;11.60;7.47;;;;;;;;;;5074834;28;20051;-72
2021/09/08 03:27:48;;;;;;;11.18;7.18;;;;;;;;;;5071450;28;20111;-72
2021/09/08 03:30:14;;;;;;;11.65;7.25;;;;;;;;;;5072641;28;20464;-72
2021/09/08 03:32:40;;;;;;;16.17;7.93;;;;;;;;;;5078466;28;20055;-72
2021/09/08 03:35:06;;;;;;;16.95;7.82;;;;;;;;;;5072741;28;20475;-72
2021/09/08 03:37:31;;;;;;;11.95;7.20;;;;;;;;;;5091957;28;20039;-72
2021/09/08 03:39:57;;;;;;;13.70;7.28;;;;;;;;;;5092491;28;20031;-72
2021/09/08 03:42:23;;;;;;;12.55;7.40;;;;;;;;;;5092720;28;20077;-72
2021/09/08 03:44:48;;;;;;;12.80;7.63;;;;;;;;;;5086068;28;20349;-72
2021/09/08 03:47:14;;;;;;;13.43;8.05;;;;;;;;;;5071778;28;20036;-72
2021/09/08 03:49:40;;;;;;;12.50;7.82;;;;;;;;;;5076599;28;20016;-72
2021/09/08 03:52:06;;;;;;;12.07;7.35;;;;;;;;;;5092055;28;20059;-72
2021/09/08 03:54:31;;;;;;;12.95;8.15;;;;;;;;;;5073669;28;20048;-72
2021/09/08 03:56:57;;;;;;;14.73;8.02;;;;;;;;;;5071917;28;20571;-72
2021/09/08 03:59:23;;;;;;;15.23;7.78;;;;;;;;;;5081390;28;20040;-72
2021/09/08 04:01:49;;;;;;;13.55;8.13;;;;;;;;;;5074060;28;20032;-73
2021/09/08 04:04:15;;;;;;;20.52;8.65;;;;;;;;;;5075869;28;20507;-73
2021/09/08 04:06:41;;;;;;;14.93;8.18;;;;;;;;;;5075307;28;20032;-72
2021/09/08 04:09:06;;;;;;;13.00;8.20;;;;;;;;;;5080800;28;20109;-72
2021/09/08 04:11:34;;;;;;;15.25;8.18;;;;;;;;;;5087360;28;20460;-71
2021/09/08 04:13:59;;;;;;;14.00;9.25;;;;;;;;;;5077628;28;20435;-71
2021/09/08 04:16:25;;;;;;;16.02;9.13;;;;;;;;;;5076647;28;20032;-71
2021/09/08 04:18:50;;;;;;;17.55;8.80;;;;;;;;;;5076315;28;20179;-72
2021/09/08 04:21:15;;;;;;;16.52;9.48;;;;;;;;;;5075033;28;20030;-72
2021/09/08 04:23:41;;;;;;;17.17;9.15;;;;;;;;;;5089476;28;20020;-72
2021/09/08 04:26:06;;;;;;;16.25;8.63;;;;;;;;;;5081316;28;20504;-72
2021/09/08 04:28:32;;;;;;;15.55;8.60;;;;;;;;;;5078054;28;20023;-72
2021/09/08 04:30:58;;;;;;;16.02;8.65;;;;;;;;;;5071697;28;20497;-72
2021/09/08 04:33:23;;;;;;;14.25;8.10;;;;;;;;;;5073703;28;20093;-72
2021/09/08 04:35:48;;;;;;;17.08;9.25;;;;;;;;;;5076895;28;20047;-72
2021/09/08 04:38:14;;;;;;;16.50;9.38;;;;;;;;;;5094593;28;20069;-72
2021/09/08 04:40:40;;;;;;;15.43;8.45;;;;;;;;;;5094676;28;20016;-72
2021/09/08 04:43:05;;;;;;;19.05;9.35;;;;;;;;;;5080158;28;20562;-72
2021/09/08 04:45:31;;;;;;;16.83;9.20;;;;;;;;;;5075375;28;20025;-72
2021/09/08 04:47:57;;;;;;;15.18;8.60;;;;;;;;;;5075275;28;20472;-72
2021/09/08 04:50:22;;;;;;;14.70;8.35;;;;;;;;;;5073951;28;20032;-73
2021/09/08 04:52:47;;;;;;;16.70;9.15;;;;;;;;;;5074961;28;20482;-72
2021/09/08 04:55:13;;;;;;;15.88;9.05;;;;;;;;;;5076183;28;20434;-72
2021/09/08 04:57:38;;;;;;;16.10;8.82;;;;;;;;;;5082205;28;20044;-72
2021/09/08 05:00:05;;;;;;;14.15;9.13;;;;;;;;;;5091108;28;20097;-72
2021/09/08 05:02:30;;;;;;;15.88;9.15;;;;;;;;;;5092465;28;20039;-72
2021/09/08 05:04:56;;;;;;;17.83;9.15;;;;;;;;;;5094695;28;20024;-73
2021/09/08 05:07:21;;;;;;;17.42;9.05;;;;;;;;;;5083834;28;20024;-72
2021/09/08 05:09:47;;;;;;;19.60;9.30;;;;;;;;;;5074039;28;20020;-73
2021/09/08 05:12:12;;;;;;;13.05;8.63;;;;;;;;;;5074241;28;20036;-72
2021/09/08 05:14:38;;;;;;;14.15;8.68;;;;;;;;;;5073912;28;20036;-73
2021/09/08 05:17:07;;;;;;;13.75;9.18;;;;;;;;;;5073933;28;20090;-74
2021/09/08 05:19:33;;;;;;;16.02;8.93;;;;;;;;;;5074012;28;20073;-72
2021/09/08 05:21:59;;;;;;;14.82;8.73;;;;;;;;;;5074245;28;20103;-72
2021/09/08 05:24:24;;;;;;;13.10;8.38;;;;;;;;;;5073307;28;20124;-73
2021/09/08 05:26:50;;;;;;;16.63;8.82;;;;;;;;;;5073608;28;20028;-72
2021/09/08 05:29:16;;;;;;;14.27;8.07;;;;;;;;;;5074072;28;20065;-72
2021/09/08 05:31:42;;;;;;;13.02;8.35;;;;;;;;;;5073555;28;20472;-72
2021/09/08 05:34:07;;;;;;;12.80;8.25;;;;;;;;;;5073805;28;20043;-72
2021/09/08 05:36:33;;;;;;;14.43;8.50;;;;;;;;;;5073241;28;20476;-73
2021/09/08 05:38:58;;;;;;;14.90;8.45;;;;;;;;;;5073689;28;20039;-72
2021/09/08 05:41:24;;;;;;;14.75;8.00;;;;;;;;;;5072306;28;20024;-73
2021/09/08 05:43:49;;;;;;;15.65;8.10;;;;;;;;;;5073393;28;20037;-72
2021/09/08 05:46:15;;;;;;;14.55;8.27;;;;;;;;;;5073420;28;20024;-73
2021/09/08 05:48:40;;;;;;;13.85;9.05;;;;;;;;;;5073616;28;20055;-73
2021/09/08 05:51:06;;;;;;;12.85;8.45;;;;;;;;;;5073259;28;20475;-72
2021/09/08 05:53:31;;;;;;;13.63;8.93;;;;;;;;;;5072004;28;20103;-73
2021/09/08 05:55:57;;;;;;;12.48;7.88;;;;;;;;;;5073245;28;20030;-73
2021/09/08 05:58:23;;;;;;;17.33;8.30;;;;;;;;;;5081898;28;20388;-73
2021/09/08 06:00:49;;;;;;;13.82;8.13;;;;;;;;;;5079205;28;20028;-72
2021/09/08 06:03:14;;;;;;;13.60;8.13;;;;;;;;;;5086096;28;20030;-73
2021/09/08 06:05:40;;;;;;;16.88;8.68;;;;;;;;;;5092585;28;20027;-74
2021/09/08 06:08:06;;;;;;;13.02;7.97;;;;;;;;;;5085333;28;20025;-73
2021/09/08 06:10:31;;;;;;;15.85;9.13;;;;;;;;;;5080274;28;20435;-74
2021/09/08 06:12:57;;;;;;;11.68;8.18;;;;;;;;;;5089812;28;20030;-73
2021/09/08 06:15:22;;;;;;;15.75;8.70;;;;;;;;;;5092445;28;20387;-72
2021/09/08 06:17:48;;;;;;;15.50;9.75;;;;;;;;;;5092664;28;20016;-72
2021/09/08 06:20:13;;;;;;;14.43;8.10;;;;;;;;;;5073945;28;20020;-74
2021/09/08 06:22:40;;;;;;;13.07;8.35;;;;;;;;;;5092336;28;20020;-73
2021/09/08 06:25:06;;;;;;;12.20;8.05;;;;;;;;;;5091496;28;20024;-72
2021/09/08 06:27:32;;;;;;;15.25;8.50;;;;;;;;;;5076090;28;20027;-73
2021/09/08 06:29:57;;;;;;;13.43;8.13;;;;;;;;;;5071228;28;20020;-73
2021/09/08 06:32:23;;;;;;;17.45;8.20;;;;;;;;;;5053771;28;20360;-72
2021/09/08 06:34:49;;;;;;;13.57;7.78;;;;;;;;;;5072637;28;20040;-73
2021/09/08 06:37:15;;;;;;;12.93;8.18;;;;;;;;;;5072245;28;20090;-72
2021/09/08 06:39:41;;;;;;;11.43;8.35;;;;;;;;;;5071671;28;20027;-72
2021/09/08 06:42:07;;;;;;;13.20;8.25;;;;;;;;;;5072104;28;20032;-74
2021/09/08 06:44:32;;;;;;;14.48;8.27;;;;;;;;;;5072259;28;20028;-72
2021/09/08 06:46:58;;;;;;;13.63;8.18;;;;;;;;;;5072108;28;20067;-73
2021/09/08 06:49:24;;;;;;;14.00;7.95;;;;;;;;;;5089445;28;20020;-73
2021/09/08 06:51:49;;;;;;;12.40;7.43;;;;;;;;;;5072756;28;20028;-73
2021/09/08 06:54:15;;;;;;;12.10;7.72;;;;;;;;;;5073903;28;20028;-71
2021/09/08 06:56:41;;;;;;;13.80;7.65;;;;;;;;;;5080823;28;20020;-72
2021/09/08 06:59:07;;;;;;;12.50;7.65;;;;;;;;;;5071849;28;20123;-73
2021/09/08 07:01:32;;;;;;;13.10;7.75;;;;;;;;;;5071271;28;20104;-76
2021/09/08 07:03:58;;;;;;;15.05;8.70;;;;;;;;;;5072854;28;20048;-78
2021/09/08 07:06:23;;;;;;;13.68;7.65;;;;;;;;;;5082900;28;20035;-69
2021/09/08 07:08:50;;;;;;;14.63;8.27;;;;;;;;;;5072191;28;20023;-70
2021/09/08 07:11:16;;;;;;;11.93;7.13;;;;;;;;;;5073692;28;20112;-70
2021/09/08 07:13:42;;;;;;;12.57;7.40;;;;;;;;;;5088386;28;20448;-70
2021/09/08 07:16:08;;;;;;;11.32;6.95;;;;;;;;;;5084341;28;20103;-71
2021/09/08 07:18:34;;;;;;;11.73;7.70;;;;;;;;;;5081085;28;20121;-73
2021/09/08 07:20:59;;;;;;;12.95;7.65;;;;;;;;;;5072213;28;20056;-73
2021/09/08 07:23:25;;;;;;;14.38;7.93;;;;;;;;;;5072805;28;20034;-73
2021/09/08 07:25:50;;;;;;;12.57;7.85;;;;;;;;;;5072659;28;20029;-74
2021/09/08 07:28:16;;;;;;;14.15;7.03;;;;;;;;;;5070569;28;20029;-73
2021/09/08 07:30:42;;;;;;;13.18;7.57;;;;;;;;;;5071927;28;20025;-73
2021/09/08 07:33:08;;;;;;;13.40;7.07;;;;;;;;;;5070964;28;20024;-73
2021/09/08 07:35:34;;;;;;;13.23;8.05;;;;;;;;;;5072926;28;20356;-74
2021/09/08 07:38:00;;;;;;;10.38;7.28;;;;;;;;;;5078428;28;20051;-72
2021/09/08 07:40:26;;;;;;;12.05;7.70;;;;;;;;;;5096269;28;20077;-74
2021/09/08 07:42:53;;;;;;;13.52;8.10;;;;;;;;;;5093169;28;20059;-73
2021/09/08 07:45:19;;;;;;;15.48;8.05;;;;;;;;;;5083310;28;20039;-74
2021/09/08 07:47:45;;;;;;;12.77;8.02;;;;;;;;;;5096120;28;20028;-74
2021/09/08 07:50:11;;;;;;;14.50;8.68;;;;;;;;;;5081902;28;20024;-72
2021/09/08 07:52:37;;;;;;;13.77;7.15;;;;;;;;;;5074265;28;20042;-74
2021/09/08 07:55:04;;;;;;;12.50;7.93;;;;;;;;;;5075043;28;20029;-73
2021/09/08 07:57:30;;;;;;;12.30;7.60;;;;;;;;;;5074421;28;20133;-74
2021/09/08 07:59:56;;;;;;;13.10;8.13;;;;;;;;;;5074799;28;20111;-73
2021/09/08 08:02:21;;;;;;;13.13;7.68;;;;;;;;;;5087343;28;20163;-74
2021/09/08 08:04:46;;;;;;;13.98;8.23;;;;;;;;;;5074453;28;20028;-73
2021/09/08 08:07:12;;;;;;;12.10;7.80;;;;;;;;;;5072033;28;20458;-74
2021/09/08 08:09:42;;;;;;;15.15;8.18;;;;;;;;;;5089395;28;20536;-71
2021/09/08 08:12:11;;;;;;;14.05;8.40;;;;;;;;;;5090008;28;20604;-72
2021/09/08 08:14:36;;;;;;;13.85;8.27;;;;;;;;;;5070220;28;20032;-73
2021/09/08 08:17:04;;;;;;;12.55;7.80;;;;;;;;;;5090136;28;20468;-75
2021/09/08 08:19:29;;;;;;;12.45;7.68;;;;;;;;;;5075044;28;20024;-73
2021/09/08 08:21:55;;;;;;;11.82;7.43;;;;;;;;;;5074618;28;20107;-74
2021/09/08 08:24:20;;;;;;;14.43;8.30;;;;;;;;;;5080487;28;20028;-74
2021/09/08 08:26:46;;;;;;;12.93;8.52;;;;;;;;;;5079893;28;20036;-75
2021/09/08 08:29:11;;;;;;;13.50;8.38;;;;;;;;;;5077115;28;20024;-76
2021/09/08 08:31:37;;;;;;;12.93;8.27;;;;;;;;;;5075281;28;20039;-77
2021/09/08 08:34:02;;;;;;;14.88;8.23;;;;;;;;;;5073943;28;20435;-75
2021/09/08 08:36:28;;;;;;;15.13;8.73;;;;;;;;;;5074284;28;20021;-74
2021/09/08 08:38:53;;;;;;;12.57;7.80;;;;;;;;;;5079770;28;20020;-74
2021/09/08 08:41:21;;;;;;;12.13;8.25;;;;;;;;;;5074948;28;20024;-74
2021/09/08 08:43:47;;;;;;;16.50;8.32;;;;;;;;;;5075410;28;20087;-75
2021/09/08 08:46:13;;;;;;;13.23;7.88;;;;;;;;;;5077145;28;20488;-74
2021/09/08 08:48:39;;;;;;;16.13;7.50;;;;;;;;;;5074288;28;20021;-74
2021/09/08 08:51:04;;;;;;;13.68;7.93;;;;;;;;;;5084903;28;20031;-74
2021/09/08 08:53:30;;;;;;;12.00;7.78;;;;;;;;;;5074922;28;20024;-74
2021/09/08 08:55:55;;;;;;;11.27;7.45;;;;;;;;;;5073922;28;20042;-75
2021/09/08 08:58:21;;;;;;;12.88;8.25;;;;;;;;;;5075022;28;20044;-75
2021/09/08 09:00:46;;;;;;;10.60;7.43;;;;;;;;;;5073257;28;20038;-75
2021/09/08 09:03:32;;;;;;;12.10;7.30;;;;;;;;;;5073370;28;20667;-77
2021/09/08 09:06:04;;;;;;;13.55;7.47;;;;;;;;;;5072807;28;20040;-75
2021/09/08 09:08:34;;;;;;;13.88;7.80;;;;;;;;;;5073635;28;20075;-74
2021/09/08 09:11:00;;;;;;;13.27;7.68;;;;;;;;;;5073733;28;20039;-77
2021/09/08 09:13:33;;;;;;;10.63;7.15;;;;;;;;;;5073118;28;20046;-74
2021/09/08 09:16:05;;;;;;;;;;;;;;;;;;5073686;28;20021;-77
2021/09/08 09:18:37;;;;;;;10.20;7.10;;;;;;;;;;5074183;28;20389;-76
2021/09/08 09:21:08;;;;;;;11.90;8.05;;;;;;;;;;5073219;28;20040;-74
2021/09/08 09:23:45;;;;;;;14.65;7.53;;;;;;;;;;5073885;28;20031;-75
2021/09/08 09:26:11;;;;;;;12.88;7.68;;;;;;;;;;5073059;28;20082;-77
2021/09/08 09:28:43;;;;;;;15.55;7.70;;;;;;;;;;5073104;28;20036;-76
2021/09/08 09:31:23;;;;;;;13.52;7.40;;;;;;;;;;5073301;28;20071;-72
2021/09/08 09:33:57;;;;;;;12.32;8.55;;;;;;;;;;5072412;28;20095;-75
2021/09/08 09:36:25;;;;;;;;;;;;;;;;;;5075808;28;20023;-75
2021/09/08 09:38:52;;;;;;;13.07;7.65;;;;;;;;;;5083170;28;19923;-77
2021/09/08 09:41:27;;;;;;;17.50;8.40;;;;;;;;;;5075354;28;20033;-75
2021/09/08 09:43:53;;;;;;;12.30;7.90;;;;;;;;;;5070065;28;20031;-76
2021/09/08 09:46:19;;;;;;;12.35;7.95;;;;;;;;;;5073968;28;20468;-73
2021/09/08 09:48:45;;;;;;;11.98;8.30;;;;;;;;;;5075545;28;20027;-74
2021/09/08 09:51:13;;;;;;;11.43;7.93;;;;;;;;;;5077832;28;20037;-73
2021/09/08 09:53:39;;;;;;;14.05;8.10;;;;;;;;;;5072473;28;20031;-75
2021/09/08 09:56:13;;;;;;;12.80;8.20;;;;;;;;;;5056421;28;20031;-76
2021/09/08 09:58:39;;;;;;;14.70;8.35;;;;;;;;;;5063000;28;20384;-75
2021/09/08 10:01:05;;;;;;;11.65;7.57;;;;;;;;;;5093680;28;20027;-76
2021/09/08 10:03:32;;;;;;;13.63;8.45;;;;;;;;;;5073800;28;20404;-76
2021/09/08 10:06:00;;;;;;;10.60;7.60;;;;;;;;;;5054660;28;20062;-74
2021/09/08 10:08:28;;;;;;;16.30;8.23;;;;;;;;;;5072855;28;20532;-74
2021/09/08 10:10:56;;;;;;;14.80;7.88;;;;;;;;;;5072461;28;20107;-73
2021/09/08 10:13:28;;;;;;;14.70;8.85;;;;;;;;;;5072767;28;20423;-71
2021/09/08 10:15:54;;;;;;;12.20;7.63;;;;;;;;;;5072800;28;20021;-72
2021/09/08 10:18:26;;;;;;;14.23;7.63;;;;;;;;;;5073305;28;20020;-73
2021/09/08 10:21:06;;;;;;;12.73;8.30;;;;;;;;;;5072299;28;20456;-74
2021/09/08 10:23:39;;;;;;;15.32;8.30;;;;;;;;;;5072429;28;20059;-76
2021/09/08 10:26:13;;;;;;;14.48;8.25;;;;;;;;;;5072660;28;20048;-75
2021/09/08 10:28:41;;;;;;;16.40;7.80;;;;;;;;;;5071982;28;20025;-76
2021/09/08 10:31:09;;;;;;;15.63;8.45;;;;;;;;;;5072277;28;20020;-74
2021/09/08 10:33:37;;;;;;;11.38;7.53;;;;;;;;;;5077271;28;20020;-75
2021/09/08 10:36:03;;;;;;;11.48;7.38;;;;;;;;;;5059401;28;20024;-76
2021/09/08 10:38:31;;;;;;;13.85;8.95;;;;;;;;;;5077495;28;20070;-76
2021/09/08 10:40:56;;;;;;;13.82;7.65;;;;;;;;;;5091035;28;20092;-74
2021/09/08 10:43:32;;;;;;;13.20;7.60;;;;;;;;;;5073121;28;20036;-74
2021/09/08 10:45:58;;;;;;;11.60;8.15;;;;;;;;;;5072617;28;20024;-75
2021/09/08 10:48:42;;;;;;;12.77;7.53;;;;;;;;;;5071979;28;20028;-74
2021/09/08 10:51:08;;;;;;;;;;;;;;;;;;5063101;28;20032;-75
2021/09/08 10:53:36;;;;;;;12.45;7.32;;;;;;;;;;5084318;28;20365;-74
2021/09/08 10:56:03;;;;;;;13.88;7.75;;;;;;;;;;5084745;28;20066;-75
2021/09/08 10:59:01;;;;;;;12.02;7.78;;;;;;;;;;5075734;28;20502;-75
2021/09/08 11:01:27;;;;;;;11.02;7.03;;;;;;;;;;5016971;28;20655;-75
2021/09/08 11:03:53;;;;;;;11.25;6.72;;;;;;;;;;5081725;28;20468;-75
2021/09/08 11:06:31;;;;;;;11.65;6.90;;;;;;;;;;5077608;28;20020;-75
2021/09/08 11:09:02;;;;;;;10.65;7.20;;;;;;;;;;5083087;28;20027;-75
2021/09/08 11:11:28;;;;;;;12.15;7.32;;;;;;;;;;5075542;28;20097;-75
2021/09/08 11:13:56;;;;;;;13.77;7.55;;;;;;;;;;5087672;28;20024;-75
2021/09/08 11:16:29;;;;;;;16.05;7.55;;;;;;;;;;5081807;28;20119;-74
2021/09/08 11:18:56;;;;;;;;;;;;;;;;;;5089144;28;20371;-74
2021/09/08 11:21:27;;;;;;;11.27;6.63;;;;;;;;;;5077172;28;20374;-74
2021/09/08 11:23:58;;;;;;;14.70;7.20;;;;;;;;;;5073281;28;20037;-74
2021/09/08 11:26:26;;;;;;;11.95;7.00;;;;;;;;;;5077356;28;20036;-74
2021/09/08 11:29:03;;;;;;;12.02;7.55;;;;;;;;;;5074055;28;20097;-73
2021/09/08 11:31:45;;;;;;;15.07;8.00;;;;;;;;;;5081053;28;20040;-75
2021/09/08 11:34:19;;;;;;;11.52;7.63;;;;;;;;;;5078952;28;20103;-74
2021/09/08 11:36:45;;;;;;;14.80;7.63;;;;;;;;;;5071095;28;20034;-73
2021/09/08 11:39:15;;;;;;;13.15;7.97;;;;;;;;;;5074287;28;20104;-74
2021/09/08 11:41:56;;;;;;;12.20;7.70;;;;;;;;;;5075020;28;20448;-77
2021/09/08 11:44:21;;;;;;;10.57;7.82;;;;;;;;;;5074573;28;20107;-76
2021/09/08 11:46:47;;;;;;;11.55;7.38;;;;;;;;;;5063334;28;20132;-76
2021/09/08 11:49:13;;;;;;;10.32;7.05;;;;;;;;;;5072752;28;20491;-74
2021/09/08 11:51:41;;;;;;;11.30;8.25;;;;;;;;;;5076770;28;20103;-75
2021/09/08 11:54:14;;;;;;;14.07;7.65;;;;;;;;;;5075908;28;20027;-74
2021/09/08 11:56:40;;;;;;;12.95;7.72;;;;;;;;;;5073227;28;20019;-73
2021/09/08 11:59:08;;;;;;;12.85;7.18;;;;;;;;;;5047664;28;20040;-75
2021/09/08 12:01:36;;;;;;;15.52;7.68;;;;;;;;;;5077204;28;20051;-74
2021/09/08 12:04:03;;;;;;;12.23;7.50;;;;;;;;;;5078347;28;20025;-74
2021/09/08 12:06:54;;;;;;;12.20;7.30;;;;;;;;;;5071536;28;20040;-72
2021/09/08 12:09:25;;;;;;;13.60;7.85;;;;;;;;;;5059872;28;20071;-74
2021/09/08 12:11:59;;;;;;;10.93;7.43;;;;;;;;;;5077417;28;20025;-75
2021/09/08 12:14:24;;;;;;;;;;;;;;;;;;5077559;28;20035;-73
2021/09/08 12:16:51;;;;;;;12.00;7.68;;;;;;;;;;5071027;28;19912;-76
2021/09/08 12:19:38;;;;;;;12.13;7.50;;;;;;;;;;5078416;28;20039;-75
2021/09/08 12:22:40;;;;;;;12.07;6.55;;;;;;;;;;5074315;28;20053;-75
2021/09/08 12:25:17;;;;;;;12.65;7.40;;;;;;;;;;5065706;28;20087;-77
2021/09/08 12:27:52;;;;;;;12.80;6.82;;;;;;;;;;5081789;28;20028;-73
2021/09/08 12:30:17;;;;;;;11.32;7.30;;;;;;;;;;5074622;28;20029;-73
2021/09/08 12:32:59;;;;;;;10.68;7.05;;;;;;;;;;5074571;28;20077;-73
2021/09/08 12:35:44;;;;;;;10.32;6.88;;;;;;;;;;5069770;28;20028;-73
2021/09/08 12:38:27;;;;;;;11.63;6.35;;;;;;;;;;5074370;28;20035;-72
2021/09/08 12:41:23;;;;;;;12.20;6.93;;;;;;;;;;5076522;28;20021;-74
2021/09/08 12:43:54;;;;;;;12.57;7.28;;;;;;;;;;5059226;28;20056;-74
2021/09/08 12:46:41;;;;;;;10.27;6.90;;;;;;;;;;5073223;28;20025;-74
2021/09/08 12:49:11;;;;;;;10.90;6.82;;;;;;;;;;5073820;28;20016;-74
2021/09/08 12:51:38;;;;;;;11.23;7.30;;;;;;;;;;5075535;28;20383;-73
2021/09/08 12:54:08;;;;;;;13.27;6.97;;;;;;;;;;5092514;28;20375;-73
2021/09/08 12:56:34;;;;;;;12.23;7.50;;;;;;;;;;5074540;28;20032;-73
2021/09/08 12:59:00;;;;;;;11.13;7.57;;;;;;;;;;5074344;28;20055;-74
2021/09/08 13:01:26;;;;;;;12.13;7.00;;;;;;;;;;5074727;28;20372;-74
2021/09/08 13:03:53;;;;;;;12.48;7.38;;;;;;;;;;5074200;28;20028;-73
2021/09/08 13:06:19;;;;;;;11.00;7.57;;;;;;;;;;5074539;28;20079;-73
2021/09/08 13:08:44;;;;;;;11.23;7.38;;;;;;;;;;5073687;28;20028;-75
2021/09/08 13:11:10;;;;;;;11.77;7.47;;;;;;;;;;5073980;28;20074;-75
2021/09/08 13:13:35;;;;;;;11.10;6.88;;;;;;;;;;5074186;28;20435;-72
2021/09/08 13:16:01;;;;;;;13.20;7.45;;;;;;;;;;5078288;28;20023;-76
2021/09/08 13:18:26;;;;;;;11.90;7.60;;;;;;;;;;5076127;28;20379;-75
2021/09/08 13:20:52;;;;;;;12.48;7.45;;;;;;;;;;5081080;28;20024;-72
2021/09/08 13:23:17;;;;;;;11.40;7.90;;;;;;;;;;5072967;28;20396;-72
2021/09/08 13:25:43;;;;;;;11.43;7.90;;;;;;;;;;5073506;28;20055;-74
2021/09/08 13:28:08;;;;;;;12.55;8.07;;;;;;;;;;5072457;28;20111;-77
2021/09/08 13:30:34;;;;;;;12.77;7.40;;;;;;;;;;5073689;28;20027;-74
2021/09/08 13:32:59;;;;;;;11.95;7.43;;;;;;;;;;5073123;28;20017;-74
2021/09/08 13:35:25;;;;;;;13.75;7.93;;;;;;;;;;5072594;28;20396;-74
2021/09/08 13:37:50;;;;;;;12.52;7.82;;;;;;;;;;5075899;28;20028;-74
2021/09/08 13:40:16;;;;;;;13.43;7.47;;;;;;;;;;5083202;28;20029;-74
2021/09/08 13:42:42;;;;;;;13.18;8.23;;;;;;;;;;5062943;28;20031;-74
2021/09/08 13:45:08;;;;;;;12.55;8.20;;;;;;;;;;5074435;28;20034;-74
2021/09/08 13:47:33;;;;;;;13.98;8.43;;;;;;;;;;5057754;28;20033;-75
2021/09/08 13:49:59;;;;;;;11.57;7.43;;;;;;;;;;5073255;28;20298;-73
2021/09/08 13:52:25;;;;;;;13.52;8.18;;;;;;;;;;5073804;28;20112;-74
2021/09/08 13:54:50;;;;;;;18.45;8.38;;;;;;;;;;5089216;28;20078;-73
2021/09/08 13:57:15;;;;;;;10.70;8.13;;;;;;;;;;5072636;28;20098;-73
2021/09/08 13:59:41;;;;;;;12.75;7.68;;;;;;;;;;5075235;28;20037;-72
2021/09/08 14:02:07;;;;;;;12.32;7.80;;;;;;;;;;5073109;28;20082;-75
2021/09/08 14:04:32;;;;;;;11.95;7.53;;;;;;;;;;5072204;28;20024;-74
2021/09/08 14:06:58;;;;;;;16.15;8.18;;;;;;;;;;5072791;28;20094;-73
2021/09/08 14:09:25;;;;;;;13.45;8.35;;;;;;;;;;5077473;28;20704;-75
2021/09/08 14:11:52;;;;;;;13.45;8.45;;;;;;;;;;5089587;28;20023;-74
2021/09/08 14:14:19;;;;;;;13.23;8.52;;;;;;;;;;5092530;28;20035;-75
2021/09/08 14:16:45;;;;;;;14.55;8.68;;;;;;;;;;5093992;28;20028;-77
2021/09/08 14:19:13;;;;;;;13.48;8.52;;;;;;;;;;5084685;28;20085;-74
2021/09/08 14:21:39;;;;;;;13.75;8.70;;;;;;;;;;5072683;28;20016;-74
2021/09/08 14:24:04;;;;;;;15.52;9.07;;;;;;;;;;5071901;28;20040;-74
2021/09/08 14:26:30;;;;;;;15.50;9.23;;;;;;;;;;5076119;28;20031;-74
2021/09/08 14:28:56;;;;;;;17.55;9.55;;;;;;;;;;5089946;28;20101;-73
2021/09/08 14:31:21;;;;;;;16.50;9.07;;;;;;;;;;5072367;28;20043;-74
2021/09/08 14:33:49;;;;;;;14.60;9.43;;;;;;;;;;5071377;28;20024;-74